Time;durP1;ratioP1;P1;durP2;ratioP2;P2;SDS_P1;SDS_P2;PMS_P1;PMS_P2;Temp;Humidity;BMP_temperature;BMP_pressure;BME280_temperature;BME280_humidity;BME280_pressure;Samples;Min_cycle;Max_cycle;Signal;HPM_P1;HPM_P2
2021/10/19 01:39:29;;;;;;;11.50;8.80;;;11.00;99.90;;;;;;5626284;23;20967;-53
2021/10/19 01:41:56;;;;;;;12.10;7.50;;;11.00;99.90;;;;;;4988021;28;20446;-49
2021/10/19 01:44:22;;;;;;;10.30;7.20;;;11.00;99.90;;;;;;4993923;23;20518;-53
2021/10/19 01:46:49;;;;;;;10.80;7.03;;;11.00;99.90;;;;;;4987981;28;20480;-52
2021/10/19 01:51:44;;;;;;;15.20;8.10;;;10.90;99.90;;;;;;4997926;23;20502;-50
2021/10/19 01:54:11;;;;;;;11.27;8.13;;;10.90;99.90;;;;;;4987923;28;20780;-51
2021/10/19 01:56:39;;;;;;;12.00;7.60;;;10.90;99.90;;;;;;4995181;23;20494;-47
2021/10/19 01:59:05;;;;;;;17.57;8.50;;;10.90;99.90;;;;;;4988893;28;20454;-51
2021/10/19 02:01:32;;;;;;;12.70;7.50;;;10.90;99.90;;;;;;4989075;28;20455;-53
2021/10/19 02:03:59;;;;;;;13.40;8.33;;;10.80;99.90;;;;;;4985392;28;20522;-54
2021/10/19 02:06:26;;;;;;;18.13;7.80;;;10.80;99.90;;;;;;4987187;28;20443;-55
2021/10/19 02:08:52;;;;;;;11.30;7.77;;;10.80;99.90;;;;;;4989628;28;20463;-51
2021/10/19 02:11:19;;;;;;;13.10;7.10;;;10.80;99.90;;;;;;4985662;28;20501;-56
2021/10/19 02:13:47;;;;;;;12.07;7.23;;;10.80;99.90;;;;;;4989724;28;20458;-56
2021/10/19 02:16:14;;;;;;;14.33;7.97;;;10.90;99.90;;;;;;4989231;28;20431;-47
2021/10/19 02:18:42;;;;;;;16.00;9.70;;;11.00;99.90;;;;;;4991640;28;20462;-51
2021/10/19 02:21:09;;;;;;;13.90;7.20;;;11.00;99.90;;;;;;4989189;28;20454;-54
2021/10/19 02:23:36;;;;;;;15.87;8.10;;;11.00;99.90;;;;;;4988345;28;20494;-45
2021/10/19 02:26:02;;;;;;;13.10;8.70;;;11.00;99.90;;;;;;4988964;28;20450;-53
2021/10/19 02:28:29;;;;;;;15.43;8.37;;;11.00;99.90;;;;;;4987886;28;20459;-51
2021/10/19 02:30:57;;;;;;;13.40;8.30;;;11.00;99.90;;;;;;4988099;28;20447;-54
2021/10/19 02:33:24;;;;;;;15.30;8.50;;;11.00;99.90;;;;;;4988133;28;20564;-50
2021/10/19 02:35:52;;;;;;;15.30;8.70;;;11.10;99.90;;;;;;4991888;28;20439;-53
2021/10/19 02:38:19;;;;;;;12.10;8.03;;;11.00;99.90;;;;;;4989969;28;20539;-54
2021/10/19 02:40:45;;;;;;;12.60;8.27;;;11.00;99.90;;;;;;4986399;28;20447;-55
2021/10/19 02:43:12;;;;;;;12.03;8.80;;;10.90;99.90;;;;;;4989071;28;20490;-52
2021/10/19 02:45:39;;;;;;;15.20;8.80;;;10.90;99.90;;;;;;4985121;28;20470;-50
2021/10/19 02:48:07;;;;;;;13.93;9.07;;;11.00;99.90;;;;;;4990379;28;20502;-55
2021/10/19 02:50:33;;;;;;;14.40;9.23;;;11.00;99.90;;;;;;4989082;28;20919;-52
2021/10/19 02:53:00;;;;;;;13.47;8.30;;;11.00;99.90;;;;;;4986948;28;20439;-42
2021/10/19 02:55:27;;;;;;;11.27;7.73;;;11.00;99.90;;;;;;4985248;23;20503;-53
2021/10/19 02:57:53;;;;;;;14.67;8.37;;;11.00;99.90;;;;;;4988932;28;20454;-40
2021/10/19 03:05:32;;;;;;;17.07;8.83;;;11.00;99.90;;;;;;5222429;23;20510;-54
2021/10/19 03:07:59;;;;;;;17.90;8.57;;;11.00;99.90;;;;;;4978738;28;20471;-52
2021/10/19 03:10:26;;;;;;;12.27;8.63;;;11.00;99.90;;;;;;4987393;23;21034;-51
2021/10/19 03:12:53;;;;;;;21.93;9.10;;;11.00;99.90;;;;;;4981985;28;20435;-54
2021/10/19 03:15:23;;;;;;;15.33;8.17;;;11.00;99.90;;;;;;4989105;23;20490;-55
2021/10/19 03:17:50;;;;;;;17.03;8.70;;;11.00;99.90;;;;;;4981811;28;20467;-56
2021/10/19 03:22:43;;;;;;;14.17;8.90;;;11.00;99.90;;;;;;4948426;23;20828;-53
2021/10/19 03:25:10;;;;;;;17.07;9.53;;;11.00;99.90;;;;;;4943213;29;20209;-53
2021/10/19 03:27:37;;;;;;;16.17;9.30;;;11.00;99.90;;;;;;4983820;23;20498;-54
2021/10/19 03:30:05;;;;;;;12.73;8.60;;;10.90;99.90;;;;;;4981744;28;20446;-57
2021/10/19 03:32:31;;;;;;;13.60;8.90;;;10.90;99.90;;;;;;4988985;23;20495;-57
2021/10/19 03:34:58;;;;;;;16.27;9.43;;;10.90;99.90;;;;;;4981730;28;20904;-54
2021/10/19 03:37:25;;;;;;;16.13;8.60;;;11.00;99.90;;;;;;4988939;23;20577;-52
2021/10/19 03:39:53;;;;;;;16.80;9.90;;;10.90;99.90;;;;;;4980978;28;20867;-51
2021/10/19 03:42:20;;;;;;;13.57;9.10;;;10.90;99.90;;;;;;4988546;23;20490;-51
2021/10/19 03:44:47;;;;;;;14.97;9.17;;;10.90;99.90;;;;;;4981763;28;20539;-53
2021/10/19 03:47:13;;;;;;;16.70;8.83;;;10.90;99.90;;;;;;4988598;23;20483;-53
2021/10/19 03:49:40;;;;;;;19.77;9.37;;;10.90;99.90;;;;;;4981215;28;20474;-52
2021/10/19 03:52:07;;;;;;;15.50;8.87;;;10.90;99.90;;;;;;4988777;23;20483;-54
2021/10/19 03:54:33;;;;;;;18.70;10.20;;;10.90;99.90;;;;;;4981023;28;20614;-55
2021/10/19 03:57:01;;;;;;;12.93;8.50;;;10.90;99.90;;;;;;4987911;23;20483;-53
2021/10/19 03:59:29;;;;;;;15.70;9.43;;;10.90;99.90;;;;;;4981088;28;20541;-54
2021/10/19 04:01:56;;;;;;;15.37;9.10;;;10.90;99.90;;;;;;4985801;23;20819;-53
2021/10/19 04:04:23;;;;;;;17.73;9.43;;;10.80;99.90;;;;;;4923497;29;20537;-57
2021/10/19 04:06:50;;;;;;;17.07;10.10;;;10.80;99.90;;;;;;4922871;29;20549;-56
2021/10/19 04:09:16;;;;;;;15.90;9.70;;;10.80;99.90;;;;;;4980912;23;20494;-53
2021/10/19 04:11:43;;;;;;;17.50;10.33;;;10.90;99.90;;;;;;4980602;28;20435;-55
2021/10/19 04:14:11;;;;;;;15.80;10.00;;;10.90;99.90;;;;;;4994935;23;20491;-53
2021/10/19 04:16:38;;;;;;;17.97;11.30;;;10.80;99.90;;;;;;4980698;28;20927;-54
2021/10/19 04:19:04;;;;;;;15.40;11.00;;;10.80;99.90;;;;;;4988052;23;20478;-56
2021/10/19 04:21:31;;;;;;;13.97;8.70;;;10.80;99.90;;;;;;4980838;28;20446;-55
2021/10/19 04:23:58;;;;;;;19.23;10.70;;;10.80;99.90;;;;;;4981826;23;20524;-56
2021/10/19 04:26:24;;;;;;;14.37;9.10;;;10.80;99.90;;;;;;4941712;29;20471;-54
2021/10/19 04:28:51;;;;;;;17.20;10.43;;;10.80;99.90;;;;;;4951374;23;20457;-56
2021/10/19 04:31:19;;;;;;;19.90;11.63;;;10.80;99.90;;;;;;4979868;28;20529;-54
2021/10/19 04:33:46;;;;;;;19.13;10.03;;;10.80;99.90;;;;;;4980310;28;20494;-51
2021/10/19 04:36:13;;;;;;;18.10;11.13;;;10.80;99.90;;;;;;4987698;23;20561;-54
2021/10/19 04:38:39;;;;;;;16.57;9.60;;;10.80;99.90;;;;;;4980356;28;20446;-56
2021/10/19 04:41:07;;;;;;;22.83;11.63;;;10.80;99.90;;;;;;4987892;23;20495;-53
2021/10/19 04:43:34;;;;;;;19.83;9.70;;;10.80;99.90;;;;;;4980477;28;20487;-54
2021/10/19 04:46:00;;;;;;;20.00;10.93;;;10.80;99.90;;;;;;4987157;23;20500;-51
2021/10/19 04:48:28;;;;;;;19.00;10.90;;;10.70;99.90;;;;;;4980172;28;20466;-54
2021/10/19 04:50:55;;;;;;;19.60;10.17;;;10.60;99.90;;;;;;4987548;23;21042;-56
2021/10/19 04:53:22;;;;;;;18.40;10.77;;;10.60;99.90;;;;;;4979569;28;20442;-55
2021/10/19 04:55:48;;;;;;;16.33;9.97;;;10.60;99.90;;;;;;4987227;23;20491;-56
2021/10/19 04:58:15;;;;;;;18.80;9.67;;;10.60;99.90;;;;;;4979441;28;20467;-56
2021/10/19 05:00:43;;;;;;;19.73;10.50;;;10.60;99.90;;;;;;4987342;23;20956;-56
2021/10/19 05:03:10;;;;;;;16.43;9.33;;;10.60;99.90;;;;;;4980085;28;20486;-54
2021/10/19 05:05:38;;;;;;;17.10;8.70;;;10.60;99.90;;;;;;4987332;23;20743;-56
2021/10/19 05:08:05;;;;;;;17.80;9.90;;;10.60;99.90;;;;;;4979938;28;20514;-56
2021/10/19 05:10:32;;;;;;;18.70;9.97;;;10.60;99.90;;;;;;4987470;23;20789;-50
2021/10/19 05:12:58;;;;;;;18.17;9.87;;;10.60;99.90;;;;;;4979337;28;20474;-55
2021/10/19 05:18:06;;;;;;;16.53;10.70;;;10.60;99.90;;;;;;4984740;23;20522;-56
2021/10/19 05:20:33;;;;;;;18.17;10.30;;;10.60;99.90;;;;;;4979175;28;20470;-51
2021/10/19 05:23:00;;;;;;;17.33;10.07;;;10.60;99.90;;;;;;4986790;23;21081;-55
2021/10/19 05:25:27;;;;;;;16.77;9.80;;;10.60;99.90;;;;;;4979157;28;20475;-53
2021/10/19 05:27:54;;;;;;;21.97;10.30;;;10.70;99.90;;;;;;4986927;23;20494;-54
2021/10/19 05:30:20;;;;;;;14.50;8.90;;;10.60;99.90;;;;;;4980275;28;20479;-51
2021/10/19 05:32:47;;;;;;;18.50;11.17;;;10.60;99.90;;;;;;4987358;23;20598;-54
2021/10/19 05:35:14;;;;;;;17.23;11.93;;;10.50;99.90;;;;;;4979639;28;20490;-54
2021/10/19 05:37:41;;;;;;;17.27;9.70;;;10.50;99.90;;;;;;4987001;23;20818;-54
2021/10/19 05:40:10;;;;;;;17.30;9.90;;;10.50;99.90;;;;;;4979533;28;20946;-53
2021/10/19 05:42:37;;;;;;;22.50;11.87;;;10.50;99.90;;;;;;4986338;23;20491;-56
2021/10/19 05:45:04;;;;;;;17.70;9.60;;;10.50;99.90;;;;;;4979415;28;20808;-55
2021/10/19 05:47:31;;;;;;;16.40;10.97;;;10.50;99.90;;;;;;4986992;23;21055;-56
2021/10/19 05:49:57;;;;;;;19.80;10.43;;;10.50;99.90;;;;;;4978718;28;20451;-53
2021/10/19 05:52:24;;;;;;;19.53;9.63;;;10.50;99.90;;;;;;4986321;23;20486;-54
2021/10/19 05:54:51;;;;;;;16.83;9.90;;;10.50;99.90;;;;;;4979065;28;20518;-54
2021/10/19 05:57:19;;;;;;;15.67;9.03;;;10.50;99.90;;;;;;4986453;23;20447;-47
2021/10/19 05:59:45;;;;;;;18.27;11.00;;;10.60;99.90;;;;;;4979706;28;20439;-53
2021/10/19 06:02:12;;;;;;;18.27;10.03;;;10.60;99.90;;;;;;4979042;28;20454;-53
2021/10/19 06:04:39;;;;;;;19.00;9.90;;;10.60;99.90;;;;;;4986577;23;20490;-49
2021/10/19 06:07:06;;;;;;;15.53;10.10;;;10.60;99.90;;;;;;4978134;28;20459;-47
2021/10/19 06:09:32;;;;;;;20.73;11.20;;;10.70;99.90;;;;;;5001446;23;20553;-51
2021/10/19 06:12:00;;;;;;;19.80;9.90;;;10.70;99.90;;;;;;4977590;28;20447;-48
2021/10/19 06:14:28;;;;;;;19.77;11.07;;;10.80;99.90;;;;;;4991940;23;20503;-48
2021/10/19 06:16:55;;;;;;;15.27;9.87;;;10.80;99.90;;;;;;4977530;28;20825;-50
2021/10/19 06:19:22;;;;;;;15.70;11.00;;;10.80;99.90;;;;;;4984805;23;20534;-51
2021/10/19 06:21:49;;;;;;;17.70;10.53;;;10.80;99.90;;;;;;4977171;28;20986;-49
2021/10/19 06:24:17;;;;;;;16.00;10.53;;;10.80;99.90;;;;;;4984436;23;20538;-49
2021/10/19 06:26:45;;;;;;;17.37;12.20;;;10.80;99.90;;;;;;4977347;28;20471;-49
2021/10/19 06:31:41;;;;;;;17.60;10.67;;;10.80;99.90;;;;;;4983984;23;20495;-52
2021/10/19 06:34:08;;;;;;;15.50;9.90;;;10.80;99.90;;;;;;4980921;28;20507;-47
2021/10/19 06:36:35;;;;;;;20.53;10.63;;;10.90;99.90;;;;;;4987972;23;20491;-50
2021/10/19 06:39:02;;;;;;;21.00;11.67;;;11.00;99.90;;;;;;4980890;28;20776;-51
2021/10/19 06:41:30;;;;;;;16.97;10.40;;;11.00;99.90;;;;;;4987956;23;21006;-49
2021/10/19 06:43:57;;;;;;;17.53;10.70;;;11.10;99.90;;;;;;4980395;28;20521;-55
2021/10/19 06:46:23;;;;;;;15.77;9.97;;;11.10;99.90;;;;;;4987782;23;20491;-49
2021/10/19 06:48:51;;;;;;;16.80;9.80;;;11.20;99.90;;;;;;4980515;28;20509;-48
2021/10/19 06:51:18;;;;;;;14.87;8.87;;;11.20;99.90;;;;;;4987315;23;20986;-50
2021/10/19 06:53:45;;;;;;;18.03;9.23;;;11.20;99.90;;;;;;4980514;28;20438;-46
2021/10/19 06:58:37;;;;;;;22.00;10.57;;;11.20;99.90;;;;;;4986471;23;20513;-52
2021/10/19 07:01:05;;;;;;;21.53;12.27;;;11.30;99.90;;;;;;4988641;28;20680;-48
2021/10/19 07:03:32;;;;;;;16.10;9.50;;;11.30;99.90;;;;;;4987370;23;20574;-46
2021/10/19 07:06:05;;;;;;;18.23;10.27;;;11.30;99.90;;;;;;4988140;28;20454;-46
2021/10/19 07:08:33;;;;;;;16.10;9.57;;;11.30;99.90;;;;;;5020964;23;20522;-48
2021/10/19 07:11:02;;;;;;;19.80;10.60;;;11.30;99.90;;;;;;5000134;28;20458;-46
2021/10/19 07:13:29;;;;;;;26.93;10.77;;;11.40;99.90;;;;;;5024870;23;20476;-52
2021/10/19 07:15:56;;;;;;;16.77;11.07;;;11.50;99.90;;;;;;4952703;29;20543;-50
2021/10/19 07:18:29;;;;;;;20.57;11.13;;;11.50;99.90;;;;;;4979073;23;20487;-50
2021/10/19 07:20:58;;;;;;;20.10;11.30;;;11.50;99.90;;;;;;4986551;28;20441;-48
2021/10/19 07:23:38;;;;;;;19.40;12.07;;;11.60;99.90;;;;;;4993155;23;20563;-50
2021/10/19 07:26:05;;;;;;;18.30;10.63;;;11.60;99.90;;;;;;4985971;28;20431;-48
2021/10/19 07:28:33;;;;;;;16.00;10.90;;;11.70;99.90;;;;;;4993423;23;20495;-48
2021/10/19 07:31:00;;;;;;;16.10;11.40;;;11.70;99.90;;;;;;4985828;28;20470;-46
2021/10/19 07:33:27;;;;;;;26.30;11.47;;;11.80;99.90;;;;;;4985215;28;20622;-51
2021/10/19 07:35:53;;;;;;;24.60;10.50;;;11.80;99.90;;;;;;4986115;28;20462;-48
2021/10/19 07:38:20;;;;;;;18.30;11.53;;;11.90;99.90;;;;;;4984666;28;20454;-50
2021/10/19 07:40:48;;;;;;;17.60;9.60;;;11.90;99.90;;;;;;4985485;28;20451;-48
2021/10/19 07:43:15;;;;;;;20.53;10.90;;;11.90;99.90;;;;;;4985830;28;20459;-53
2021/10/19 07:45:42;;;;;;;14.60;9.30;;;12.00;99.90;;;;;;4985335;28;20870;-48
2021/10/19 07:48:09;;;;;;;19.20;10.50;;;12.10;99.90;;;;;;4985246;28;20475;-48
2021/10/19 07:50:36;;;;;;;19.87;11.27;;;12.20;99.90;;;;;;4985493;28;20583;-47
2021/10/19 07:53:08;;;;;;;19.10;10.33;;;12.30;99.90;;;;;;4985929;28;20482;-48
2021/10/19 07:55:35;;;;;;;16.33;10.60;;;12.30;99.90;;;;;;4985572;28;20431;-49
2021/10/19 07:58:03;;;;;;;17.80;9.57;;;12.30;99.90;;;;;;4984952;28;21007;-48
2021/10/19 08:00:30;;;;;;;17.67;10.57;;;12.30;99.90;;;;;;4984819;28;20498;-52
2021/10/19 08:02:58;;;;;;;20.10;10.83;;;12.30;99.90;;;;;;4985181;28;20502;-51
2021/10/19 08:05:25;;;;;;;19.40;10.60;;;12.40;99.90;;;;;;4984986;28;20479;-48
2021/10/19 08:08:05;;;;;;;18.90;9.47;;;12.40;99.90;;;;;;4984200;28;20506;-49
2021/10/19 08:10:32;;;;;;;19.83;11.20;;;12.50;99.90;;;;;;4984609;28;20494;-50
2021/10/19 08:12:58;;;;;;;18.07;11.80;;;12.60;99.90;;;;;;4984901;28;20502;-50
2021/10/19 08:15:26;;;;;;;15.67;9.40;;;12.60;99.90;;;;;;4984441;28;20456;-47
2021/10/19 08:17:53;;;;;;;15.23;9.80;;;12.70;99.90;;;;;;4984357;28;20463;-51
2021/10/19 08:20:20;;;;;;;20.13;10.47;;;12.80;99.90;;;;;;4984453;28;20764;-48
2021/10/19 08:22:47;;;;;;;21.40;10.37;;;12.90;99.90;;;;;;4984095;28;20475;-48
2021/10/19 08:25:13;;;;;;;13.20;9.57;;;13.00;99.90;;;;;;4984569;28;20482;-49
2021/10/19 08:27:43;;;;;;;16.27;9.90;;;13.10;99.90;;;;;;4984338;28;20486;-51
2021/10/19 08:30:12;;;;;;;18.80;10.50;;;13.20;99.90;;;;;;4984250;28;20431;-51
2021/10/19 08:32:42;;;;;;;20.17;10.77;;;13.30;99.90;;;;;;4984688;28;20964;-47
2021/10/19 08:35:10;;;;;;;15.90;10.20;;;13.50;99.90;;;;;;4985328;28;20534;-50
2021/10/19 08:37:36;;;;;;;17.37;9.63;;;13.70;99.90;;;;;;4985161;28;20474;-48
2021/10/19 08:40:04;;;;;;;16.87;9.73;;;13.80;99.90;;;;;;4984316;28;20513;-50
2021/10/19 08:42:32;;;;;;;16.70;10.60;;;13.90;99.90;;;;;;4983258;28;20801;-48
2021/10/19 08:44:59;;;;;;;17.83;10.30;;;14.00;99.90;;;;;;4983361;28;20998;-50
2021/10/19 08:47:25;;;;;;;14.80;8.83;;;13.90;99.90;;;;;;4982853;28;20471;-51
2021/10/19 08:49:53;;;;;;;18.37;10.23;;;13.90;99.90;;;;;;4983034;28;20451;-47
2021/10/19 08:52:20;;;;;;;15.43;10.17;;;14.00;99.90;;;;;;4982974;28;20467;-49
2021/10/19 08:54:46;;;;;;;14.57;9.90;;;14.00;99.90;;;;;;4982472;28;20423;-49
2021/10/19 08:57:14;;;;;;;14.50;9.50;;;14.00;99.90;;;;;;4982349;28;20451;-48
2021/10/19 08:59:44;;;;;;;18.20;10.37;;;14.10;99.90;;;;;;4983171;28;20459;-47
2021/10/19 09:02:11;;;;;;;17.40;10.20;;;14.20;99.90;;;;;;4982744;28;20526;-49
2021/10/19 09:04:38;;;;;;;15.23;9.70;;;14.30;99.90;;;;;;4982006;28;20471;-51
2021/10/19 09:07:07;;;;;;;13.53;9.00;;;14.40;99.90;;;;;;4981772;28;20466;-49
2021/10/19 09:09:35;;;;;;;17.57;11.30;;;14.50;99.90;;;;;;4981709;28;20431;-53
2021/10/19 09:12:02;;;;;;;15.03;8.50;;;14.70;99.90;;;;;;4981016;28;20447;-48
2021/10/19 09:14:31;;;;;;;13.33;8.90;;;14.80;99.90;;;;;;4981552;28;20525;-49
2021/10/19 09:17:00;;;;;;;14.70;8.80;;;15.10;99.90;;;;;;4982006;28;20447;-49
2021/10/19 09:19:27;;;;;;;13.83;9.07;;;15.20;99.90;;;;;;4980946;28;20517;-47
2021/10/19 09:21:56;;;;;;;14.70;8.10;;;15.40;99.90;;;;;;4981428;28;20462;-45
2021/10/19 09:24:27;;;;;;;17.23;9.40;;;15.60;99.90;;;;;;4981635;28;20487;-46
2021/10/19 09:26:56;;;;;;;14.57;9.03;;;15.70;99.90;;;;;;4980934;28;20439;-47
2021/10/19 09:29:23;;;;;;;12.27;8.67;;;15.80;99.90;;;;;;4981581;28;20519;-46
2021/10/19 09:31:54;;;;;;;13.40;8.63;;;15.80;99.90;;;;;;4982715;28;20501;-53
2021/10/19 09:34:21;;;;;;;11.60;7.80;;;16.10;99.90;;;;;;4981196;28;20554;-49
2021/10/19 09:36:52;;;;;;;13.73;9.97;;;16.20;99.90;;;;;;4980864;28;20758;-52
2021/10/19 09:39:33;;;;;;;11.70;8.20;;;16.30;99.90;;;;;;4980290;28;20446;-51
2021/10/19 09:42:01;;;;;;;13.20;8.40;;;16.70;99.90;;;;;;4980090;28;20987;-52
2021/10/19 09:44:28;;;;;;;13.63;9.03;;;17.20;99.90;;;;;;4979916;28;20549;-50
2021/10/19 09:46:55;;;;;;;10.47;7.10;;;17.80;99.90;;;;;;4979746;28;20517;-51
2021/10/19 09:49:22;;;;;;;15.30;10.17;;;18.10;99.90;;;;;;4980001;28;20523;-49
2021/10/19 09:51:50;;;;;;;14.10;8.00;;;18.30;99.90;;;;;;4980343;28;20513;-49
2021/10/19 09:54:20;;;;;;;13.43;8.47;;;18.60;99.90;;;;;;4979907;28;20450;-50
2021/10/19 09:56:49;;;;;;;13.97;8.50;;;18.60;99.90;;;;;;4979913;28;20459;-45
2021/10/19 09:59:17;;;;;;;10.77;8.23;;;18.60;99.90;;;;;;4979982;28;20478;-50
2021/10/19 10:01:45;;;;;;;12.97;8.03;;;18.80;99.90;;;;;;4980212;28;20489;-49
2021/10/19 10:04:12;;;;;;;11.40;7.60;;;18.90;99.90;;;;;;4980121;28;20859;-50
2021/10/19 10:06:41;;;;;;;11.07;6.90;;;19.10;99.90;;;;;;4984318;28;20461;-48
2021/10/19 10:09:08;;;;;;;14.00;8.50;;;19.20;99.90;;;;;;4986132;28;20529;-45
2021/10/19 10:11:39;;;;;;;10.60;7.73;;;19.30;99.90;;;;;;4984927;28;20451;-48
2021/10/19 10:14:08;;;;;;;9.93;8.07;;;19.20;99.90;;;;;;4983025;28;20474;-53
2021/10/19 10:16:43;;;;;;;10.27;7.23;;;19.20;99.90;;;;;;4983265;28;20443;-52
2021/10/19 10:19:12;;;;;;;9.77;7.13;;;19.30;99.90;;;;;;4983159;28;20485;-53
2021/10/19 10:21:47;;;;;;;10.80;7.60;;;19.30;99.90;;;;;;4983470;28;20457;-49
2021/10/19 10:24:14;;;;;;;12.40;8.10;;;19.20;99.90;;;;;;4983068;28;20560;-51
2021/10/19 10:26:40;;;;;;;14.27;8.40;;;19.00;99.90;;;;;;4983099;28;20817;-54
2021/10/19 10:29:10;;;;;;;13.20;7.10;;;18.80;99.90;;;;;;4982466;28;20486;-48
2021/10/19 10:31:47;;;;;;;10.33;6.67;;;18.70;99.90;;;;;;4983154;28;20485;-54
2021/10/19 10:34:14;;;;;;;12.60;8.90;;;18.70;99.90;;;;;;4982850;28;20462;-48
2021/10/19 10:36:45;;;;;;;12.37;7.70;;;18.70;99.90;;;;;;4982529;28;20442;-53
2021/10/19 10:39:13;;;;;;;9.07;7.77;;;18.60;99.90;;;;;;4982646;28;20475;-49
2021/10/19 10:41:43;;;;;;;14.10;7.70;;;18.50;99.90;;;;;;4982282;28;20454;-52
2021/10/19 10:44:13;;;;;;;9.40;6.67;;;18.50;99.90;;;;;;4982616;28;20532;-53
2021/10/19 10:46:41;;;;;;;12.00;7.30;;;18.30;99.90;;;;;;4982465;28;20493;-51
2021/10/19 10:49:12;;;;;;;13.00;7.73;;;18.30;99.90;;;;;;4981897;28;20474;-51
2021/10/19 10:51:40;;;;;;;9.00;6.30;;;18.30;99.90;;;;;;4982602;28;20462;-51
2021/10/19 10:54:07;;;;;;;12.67;8.23;;;18.30;99.90;;;;;;4982553;28;20502;-50
2021/10/19 10:56:45;;;;;;;11.17;6.60;;;18.40;99.90;;;;;;4982316;28;20462;-50
2021/10/19 10:59:23;;;;;;;13.47;7.30;;;18.40;99.90;;;;;;4982412;28;20485;-52
2021/10/19 11:01:50;;;;;;;11.50;7.60;;;18.40;99.90;;;;;;4982555;28;20502;-50
2021/10/19 11:04:17;;;;;;;12.27;8.10;;;18.30;99.90;;;;;;4983009;28;20847;-48
2021/10/19 11:06:44;;;;;;;8.43;6.23;;;18.30;99.90;;;;;;4981754;28;20482;-48
2021/10/19 11:09:12;;;;;;;11.33;6.90;;;18.20;99.90;;;;;;4981881;28;20553;-50
2021/10/19 11:11:41;;;;;;;12.13;8.00;;;18.20;99.90;;;;;;4981934;28;20458;-49
2021/10/19 11:14:09;;;;;;;10.87;7.00;;;18.20;99.90;;;;;;4981994;28;20506;-46
2021/10/19 11:16:39;;;;;;;8.40;6.70;;;18.20;99.90;;;;;;4981346;28;20514;-44
2021/10/19 11:19:12;;;;;;;14.00;6.10;;;18.20;99.90;;;;;;4982328;28;20470;-50
2021/10/19 11:21:43;;;;;;;10.17;6.70;;;18.20;99.90;;;;;;4982285;28;20788;-46
2021/10/19 11:24:10;;;;;;;8.90;5.70;;;18.30;99.90;;;;;;4982414;28;20533;-48
2021/10/19 11:26:39;;;;;;;12.20;6.33;;;18.30;99.90;;;;;;4981966;28;20713;-44
2021/10/19 11:29:06;;;;;;;8.90;6.70;;;18.30;99.90;;;;;;4981750;28;20937;-47
2021/10/19 11:31:34;;;;;;;8.57;6.13;;;18.40;99.90;;;;;;4982121;28;20507;-45
2021/10/19 11:34:06;;;;;;;8.00;5.90;;;18.40;99.90;;;;;;4983727;28;20475;-46
2021/10/19 11:36:33;;;;;;;8.90;6.70;;;18.40;99.90;;;;;;4982367;28;20506;-53
2021/10/19 11:39:01;;;;;;;10.60;7.90;;;18.40;99.90;;;;;;4981388;28;20815;-49
2021/10/19 11:41:29;;;;;;;11.23;7.53;;;18.40;99.90;;;;;;4981657;28;20454;-50
2021/10/19 11:44:01;;;;;;;11.33;7.33;;;18.40;99.90;;;;;;4981204;28;20955;-50
2021/10/19 11:46:30;;;;;;;9.17;6.13;;;18.40;99.90;;;;;;4981628;28;20475;-51
2021/10/19 11:49:03;;;;;;;10.07;7.50;;;18.40;99.90;;;;;;4981059;28;20493;-49
2021/10/19 11:51:30;;;;;;;8.37;6.10;;;18.40;99.90;;;;;;4980923;28;20447;-52
2021/10/19 11:53:59;;;;;;;6.77;4.90;;;18.40;99.90;;;;;;4981015;28;20474;-53
2021/10/19 11:56:28;;;;;;;6.20;4.77;;;18.40;99.90;;;;;;4981037;28;20892;-52
2021/10/19 11:58:55;;;;;;;6.60;5.40;;;18.40;99.90;;;;;;4980926;28;20466;-46
2021/10/19 12:01:27;;;;;;;7.60;5.07;;;18.40;99.90;;;;;;4981307;28;20451;-47
2021/10/19 12:03:58;;;;;;;8.27;6.10;;;18.30;99.90;;;;;;4981248;28;20530;-50
2021/10/19 12:06:28;;;;;;;9.47;5.77;;;18.40;99.90;;;;;;4980976;28;20475;-48
2021/10/19 12:08:55;;;;;;;6.10;4.93;;;18.40;99.90;;;;;;4981104;28;20482;-52
2021/10/19 12:11:24;;;;;;;7.03;4.73;;;18.40;99.90;;;;;;4981039;28;20799;-52
2021/10/19 12:13:55;;;;;;;6.50;4.67;;;18.30;99.90;;;;;;4981122;28;20542;-51
2021/10/19 12:16:26;;;;;;;6.30;4.53;;;18.40;99.90;;;;;;4981635;28;20427;-45
2021/10/19 12:18:55;;;;;;;17.20;10.27;;;18.30;99.90;;;;;;4981134;28;20448;-53
2021/10/19 12:21:22;;;;;;;19.70;10.63;;;18.20;99.90;;;;;;4981566;28;20427;-50
2021/10/19 12:23:54;;;;;;;9.23;6.40;;;18.10;99.90;;;;;;4981069;28;20443;-53
2021/10/19 12:26:23;;;;;;;9.00;5.50;;;18.00;99.90;;;;;;4981353;28;20804;-49
2021/10/19 12:28:51;;;;;;;6.67;5.40;;;18.00;99.90;;;;;;4980311;28;20455;-49
2021/10/19 12:31:22;;;;;;;7.53;5.60;;;18.00;99.90;;;;;;4982345;28;20522;-49
2021/10/19 12:33:53;;;;;;;7.83;5.20;;;18.00;99.90;;;;;;4981119;28;20467;-43
2021/10/19 12:36:22;;;;;;;7.57;5.67;;;18.00;99.90;;;;;;4980480;28;20431;-54
2021/10/19 12:38:49;;;;;;;5.77;4.80;;;18.00;99.90;;;;;;4980321;28;20455;-48
2021/10/19 12:41:19;;;;;;;6.77;4.67;;;18.00;99.90;;;;;;4980390;28;20927;-50
2021/10/19 12:43:48;;;;;;;6.37;4.70;;;18.10;99.90;;;;;;4980879;28;20451;-47
2021/10/19 12:46:17;;;;;;;5.57;4.07;;;18.00;99.90;;;;;;4980798;28;20629;-52
2021/10/19 12:48:44;;;;;;;9.10;5.30;;;18.10;99.90;;;;;;4980581;28;20447;-46
2021/10/19 12:51:13;;;;;;;7.57;5.17;;;18.10;99.90;;;;;;4980410;28;20463;-47
2021/10/19 12:53:40;;;;;;;6.73;5.07;;;18.20;99.90;;;;;;4980617;28;20454;-51
2021/10/19 12:56:07;;;;;;;5.00;3.97;;;18.20;99.90;;;;;;4980368;28;20443;-47
2021/10/19 12:58:35;;;;;;;7.07;4.77;;;18.10;99.90;;;;;;4980900;28;20521;-45
2021/10/19 13:01:04;;;;;;;5.17;4.50;;;18.00;99.90;;;;;;4982495;28;20459;-47
2021/10/19 13:03:31;;;;;;;5.00;4.43;;;17.90;99.90;;;;;;4982027;28;20446;-47
2021/10/19 13:06:00;;;;;;;8.00;5.90;;;17.90;99.90;;;;;;4980165;28;20486;-49
2021/10/19 13:08:27;;;;;;;5.83;4.13;;;17.90;99.90;;;;;;4980761;28;20506;-45
2021/10/19 13:10:54;;;;;;;6.93;4.30;;;17.90;99.90;;;;;;4980527;28;20479;-47
2021/10/19 13:13:22;;;;;;;4.70;3.80;;;17.80;99.90;;;;;;4980568;28;20466;-49
2021/10/19 13:15:54;;;;;;;5.87;4.40;;;17.80;99.90;;;;;;4980199;28;20471;-50
2021/10/19 13:18:21;;;;;;;8.23;5.20;;;17.90;99.90;;;;;;4981768;28;20494;-48
2021/10/19 13:20:48;;;;;;;5.33;4.13;;;17.80;99.90;;;;;;4981224;28;20455;-53
2021/10/19 13:23:15;;;;;;;6.10;4.73;;;17.80;99.90;;;;;;4981534;28;20494;-50
2021/10/19 13:25:42;;;;;;;8.87;4.40;;;17.80;99.90;;;;;;4980508;28;20826;-53
2021/10/19 13:28:10;;;;;;;6.30;4.30;;;17.70;99.90;;;;;;4980686;28;20458;-49
2021/10/19 13:30:37;;;;;;;7.03;4.93;;;17.70;99.90;;;;;;4981675;28;20462;-48
2021/10/19 13:33:08;;;;;;;7.23;4.70;;;17.70;99.90;;;;;;4981186;28;20528;-48
2021/10/19 13:35:34;;;;;;;4.73;4.20;;;17.70;99.90;;;;;;4980444;28;20517;-51
2021/10/19 13:38:02;;;;;;;6.87;4.47;;;17.70;99.90;;;;;;4979959;28;20514;-48
2021/10/19 13:40:28;;;;;;;5.60;4.00;;;17.70;99.90;;;;;;4979374;28;20537;-50
2021/10/19 13:42:55;;;;;;;8.57;4.33;;;17.70;99.90;;;;;;4979350;28;20529;-52
2021/10/19 13:45:22;;;;;;;5.00;4.00;;;17.60;99.90;;;;;;4979139;28;20502;-47
2021/10/19 13:47:48;;;;;;;9.83;4.43;;;17.60;99.90;;;;;;4979474;28;20509;-53
2021/10/19 13:50:17;;;;;;;8.83;4.73;;;17.60;99.90;;;;;;4979197;28;20549;-50
2021/10/19 13:52:45;;;;;;;7.23;4.37;;;17.60;99.90;;;;;;4979121;28;20478;-48
2021/10/19 13:55:12;;;;;;;5.13;3.80;;;17.60;99.90;;;;;;4979268;28;20463;-50
2021/10/19 13:57:40;;;;;;;6.20;3.80;;;17.60;99.90;;;;;;4979416;28;20446;-49
2021/10/19 14:00:10;;;;;;;7.10;4.50;;;17.60;99.90;;;;;;4979403;28;20481;-51
2021/10/19 14:02:37;;;;;;;5.97;4.00;;;17.60;99.90;;;;;;4979718;28;20482;-53
2021/10/19 14:05:05;;;;;;;6.73;4.57;;;17.60;99.90;;;;;;4979142;28;20513;-51
2021/10/19 14:07:34;;;;;;;6.80;3.70;;;17.50;99.90;;;;;;4979143;28;20911;-53
2021/10/19 14:10:00;;;;;;;6.43;4.30;;;17.50;99.90;;;;;;4978975;28;20944;-48
2021/10/19 14:12:29;;;;;;;4.23;3.50;;;17.40;99.90;;;;;;4979174;28;20485;-49
2021/10/19 14:14:56;;;;;;;9.97;4.50;;;17.40;99.90;;;;;;4979493;28;20553;-52
2021/10/19 14:17:24;;;;;;;5.70;4.07;;;17.40;99.90;;;;;;4979204;28;20431;-47
2021/10/19 14:19:51;;;;;;;6.80;4.50;;;17.40;99.90;;;;;;4983717;28;20924;-56
2021/10/19 14:22:18;;;;;;;6.07;4.57;;;17.40;99.90;;;;;;4980196;28;20498;-53
2021/10/19 14:24:47;;;;;;;5.23;3.77;;;17.30;99.90;;;;;;4978200;28;20505;-53
2021/10/19 14:27:14;;;;;;;6.33;4.37;;;17.30;99.90;;;;;;4978328;28;20474;-52
2021/10/19 14:29:41;;;;;;;4.97;4.30;;;17.20;99.90;;;;;;4978556;28;20470;-47
2021/10/19 14:32:09;;;;;;;6.90;4.90;;;17.20;99.90;;;;;;4978193;28;20482;-51
2021/10/19 14:34:36;;;;;;;6.20;4.40;;;17.20;99.90;;;;;;4978178;28;20465;-54